Forksville, Virginia
Current Conditions -  °F | °C
As of 3:36 AM on Monday 26 Jan 2015 (Local Time) from KAVC Reporting Station
Overcast Overcast  
Wind Chill: 39°   Ceiling: 11000
Heat Index: 39°   Visibility: 10mi
Dew Point: 35°   Wind: 0mph
Humidity: 87%   Direction: NA
Pressure: 29.79"   Gusts: NA
Location:  36.6609°N, 78.0932°W
Report Text: KAVC 260836Z AUTO 00000KT 10SM SCT080 OVC110 04/02 A2979 RMK AO2 T00370017
Loading
Personal Weather Stations






























Interactive Weather Map New forecast layout! Learn more

10-Day Weather Forecast

Advertisements
Track Severe Weather on mobile